sensor_id;sensor_type;location;lat;lon;timestamp;P1;durP1;ratioP1;P2;durP2;ratioP2
24521;SDS011;12680;57.804;12.190;2024-03-23T00:52:21;44.50;;;5.65;;
24521;SDS011;12680;57.804;12.190;2024-03-23T00:54:54;23.45;;;3.80;;
24521;SDS011;12680;57.804;12.190;2024-03-23T00:57:26;31.02;;;5.40;;
24521;SDS011;12680;57.804;12.190;2024-03-23T00:59:58;32.75;;;5.07;;
24521;SDS011;12680;57.804;12.190;2024-03-23T01:02:24;31.65;;;4.70;;
24521;SDS011;12680;57.804;12.190;2024-03-23T01:04:50;34.35;;;5.40;;
24521;SDS011;12680;57.804;12.190;2024-03-23T01:07:22;37.17;;;5.15;;
24521;SDS011;12680;57.804;12.190;2024-03-23T01:09:48;27.80;;;4.88;;
24521;SDS011;12680;57.804;12.190;2024-03-23T01:12:20;29.60;;;3.88;;
24521;SDS011;12680;57.804;12.190;2024-03-23T01:14:46;33.03;;;5.03;;
24521;SDS011;12680;57.804;12.190;2024-03-23T01:17:19;30.92;;;4.57;;
24521;SDS011;12680;57.804;12.190;2024-03-23T01:19:45;28.98;;;4.45;;
24521;SDS011;12680;57.804;12.190;2024-03-23T01:22:11;27.83;;;4.60;;
24521;SDS011;12680;57.804;12.190;2024-03-23T01:24:44;34.30;;;4.38;;
24521;SDS011;12680;57.804;12.190;2024-03-23T01:27:10;33.97;;;4.32;;
24521;SDS011;12680;57.804;12.190;2024-03-23T01:29:42;27.88;;;3.65;;
24521;SDS011;12680;57.804;12.190;2024-03-23T01:32:08;29.00;;;4.32;;
24521;SDS011;12680;57.804;12.190;2024-03-23T01:34:40;28.23;;;3.47;;
24521;SDS011;12680;57.804;12.190;2024-03-23T01:37:06;33.75;;;5.88;;
24521;SDS011;12680;57.804;12.190;2024-03-23T01:39:32;30.67;;;4.40;;
24521;SDS011;12680;57.804;12.190;2024-03-23T01:42:18;29.65;;;4.85;;
24521;SDS011;12680;57.804;12.190;2024-03-23T01:44:44;27.55;;;4.15;;
24521;SDS011;12680;57.804;12.190;2024-03-23T01:47:09;32.97;;;4.88;;
24521;SDS011;12680;57.804;12.190;2024-03-23T01:49:42;31.50;;;4.82;;
24521;SDS011;12680;57.804;12.190;2024-03-23T01:52:08;28.15;;;4.75;;
24521;SDS011;12680;57.804;12.190;2024-03-23T01:54:40;28.40;;;5.88;;
24521;SDS011;12680;57.804;12.190;2024-03-23T01:57:19;29.00;;;4.85;;
24521;SDS011;12680;57.804;12.190;2024-03-23T01:59:46;30.70;;;5.38;;
24521;SDS011;12680;57.804;12.190;2024-03-23T02:02:12;22.65;;;4.50;;
24521;SDS011;12680;57.804;12.190;2024-03-23T02:04:44;35.55;;;5.95;;
24521;SDS011;12680;57.804;12.190;2024-03-23T02:07:10;29.98;;;5.57;;
24521;SDS011;12680;57.804;12.190;2024-03-23T02:09:43;30.48;;;5.55;;
24521;SDS011;12680;57.804;12.190;2024-03-23T02:12:09;47.45;;;7.50;;
24521;SDS011;12680;57.804;12.190;2024-03-23T02:14:41;33.75;;;6.05;;
24521;SDS011;12680;57.804;12.190;2024-03-23T02:17:13;33.45;;;6.93;;
24521;SDS011;12680;57.804;12.190;2024-03-23T02:19:39;23.70;;;5.47;;
24521;SDS011;12680;57.804;12.190;2024-03-23T02:22:11;27.92;;;5.63;;
24521;SDS011;12680;57.804;12.190;2024-03-23T02:24:37;29.08;;;6.65;;
24521;SDS011;12680;57.804;12.190;2024-03-23T02:27:10;33.95;;;5.65;;
24521;SDS011;12680;57.804;12.190;2024-03-23T02:29:36;34.47;;;6.68;;
24521;SDS011;12680;57.804;12.190;2024-03-23T02:32:08;34.92;;;5.78;;
24521;SDS011;12680;57.804;12.190;2024-03-23T02:34:40;25.67;;;5.30;;
24521;SDS011;12680;57.804;12.190;2024-03-23T02:37:10;31.50;;;6.00;;
24521;SDS011;12680;57.804;12.190;2024-03-23T02:39:43;25.17;;;5.93;;
24521;SDS011;12680;57.804;12.190;2024-03-23T02:42:09;27.50;;;6.03;;
24521;SDS011;12680;57.804;12.190;2024-03-23T02:44:41;32.92;;;6.65;;
24521;SDS011;12680;57.804;12.190;2024-03-23T02:47:14;36.17;;;6.40;;
24521;SDS011;12680;57.804;12.190;2024-03-23T02:49:46;22.45;;;6.15;;
24521;SDS011;12680;57.804;12.190;2024-03-23T02:52:12;26.80;;;5.75;;
24521;SDS011;12680;57.804;12.190;2024-03-23T02:54:51;33.70;;;6.22;;
24521;SDS011;12680;57.804;12.190;2024-03-23T02:57:23;25.70;;;6.28;;
24521;SDS011;12680;57.804;12.190;2024-03-23T02:59:49;40.67;;;6.95;;
24521;SDS011;12680;57.804;12.190;2024-03-23T03:02:15;39.05;;;6.22;;
24521;SDS011;12680;57.804;12.190;2024-03-23T03:04:47;38.55;;;5.97;;
24521;SDS011;12680;57.804;12.190;2024-03-23T03:07:13;29.80;;;5.80;;
24521;SDS011;12680;57.804;12.190;2024-03-23T03:09:39;33.28;;;7.13;;
24521;SDS011;12680;57.804;12.190;2024-03-23T03:12:11;28.50;;;6.70;;
24521;SDS011;12680;57.804;12.190;2024-03-23T03:14:37;32.05;;;6.90;;
24521;SDS011;12680;57.804;12.190;2024-03-23T03:17:03;29.67;;;5.95;;
24521;SDS011;12680;57.804;12.190;2024-03-23T03:19:35;26.60;;;6.13;;
24521;SDS011;12680;57.804;12.190;2024-03-23T03:22:01;27.98;;;6.13;;
24521;SDS011;12680;57.804;12.190;2024-03-23T03:24:27;31.67;;;6.85;;
24521;SDS011;12680;57.804;12.190;2024-03-23T03:26:59;37.33;;;5.57;;
24521;SDS011;12680;57.804;12.190;2024-03-23T03:29:25;26.98;;;5.60;;
24521;SDS011;12680;57.804;12.190;2024-03-23T03:31:51;25.35;;;4.85;;
24521;SDS011;12680;57.804;12.190;2024-03-23T03:34:23;30.65;;;4.78;;
24521;SDS011;12680;57.804;12.190;2024-03-23T03:36:49;29.25;;;5.18;;
24521;SDS011;12680;57.804;12.190;2024-03-23T03:39:21;34.00;;;5.35;;
24521;SDS011;12680;57.804;12.190;2024-03-23T03:41:48;35.00;;;5.32;;
24521;SDS011;12680;57.804;12.190;2024-03-23T03:44:20;26.45;;;4.82;;
24521;SDS011;12680;57.804;12.190;2024-03-23T03:46:46;32.15;;;5.07;;
24521;SDS011;12680;57.804;12.190;2024-03-23T03:49:18;22.23;;;4.60;;
24521;SDS011;12680;57.804;12.190;2024-03-23T03:51:44;28.52;;;5.07;;
24521;SDS011;12680;57.804;12.190;2024-03-23T03:54:16;31.33;;;4.78;;
24521;SDS011;12680;57.804;12.190;2024-03-23T03:56:48;27.77;;;4.93;;
24521;SDS011;12680;57.804;12.190;2024-03-23T03:59:29;23.95;;;4.82;;
24521;SDS011;12680;57.804;12.190;2024-03-23T04:02:01;23.30;;;4.85;;
24521;SDS011;12680;57.804;12.190;2024-03-23T04:04:27;27.05;;;4.25;;
24521;SDS011;12680;57.804;12.190;2024-03-23T04:07:00;25.05;;;4.18;;
24521;SDS011;12680;57.804;12.190;2024-03-23T04:09:26;24.98;;;4.80;;
24521;SDS011;12680;57.804;12.190;2024-03-23T04:11:58;25.40;;;4.45;;
24521;SDS011;12680;57.804;12.190;2024-03-23T04:14:24;25.67;;;4.53;;
24521;SDS011;12680;57.804;12.190;2024-03-23T04:16:56;28.45;;;4.65;;
24521;SDS011;12680;57.804;12.190;2024-03-23T04:19:22;31.02;;;4.53;;
24521;SDS011;12680;57.804;12.190;2024-03-23T04:21:48;26.70;;;4.85;;
24521;SDS011;12680;57.804;12.190;2024-03-23T04:24:20;18.92;;;3.65;;
24521;SDS011;12680;57.804;12.190;2024-03-23T04:26:47;24.70;;;4.40;;
24521;SDS011;12680;57.804;12.190;2024-03-23T04:29:19;35.05;;;4.70;;
24521;SDS011;12680;57.804;12.190;2024-03-23T04:31:45;25.45;;;4.10;;
24521;SDS011;12680;57.804;12.190;2024-03-23T04:34:18;29.75;;;4.47;;
24521;SDS011;12680;57.804;12.190;2024-03-23T04:36:50;27.90;;;5.18;;
24521;SDS011;12680;57.804;12.190;2024-03-23T04:39:16;24.73;;;4.18;;
24521;SDS011;12680;57.804;12.190;2024-03-23T04:41:48;30.48;;;4.90;;
24521;SDS011;12680;57.804;12.190;2024-03-23T04:44:15;26.98;;;5.30;;
24521;SDS011;12680;57.804;12.190;2024-03-23T04:46:41;26.00;;;5.03;;
24521;SDS011;12680;57.804;12.190;2024-03-23T04:49:13;31.45;;;4.47;;
24521;SDS011;12680;57.804;12.190;2024-03-23T04:51:45;26.45;;;4.53;;
24521;SDS011;12680;57.804;12.190;2024-03-23T04:54:12;22.52;;;4.72;;
24521;SDS011;12680;57.804;12.190;2024-03-23T04:56:45;27.45;;;4.10;;
24521;SDS011;12680;57.804;12.190;2024-03-23T04:59:11;26.90;;;3.78;;
24521;SDS011;12680;57.804;12.190;2024-03-23T05:01:37;29.20;;;3.75;;
24521;SDS011;12680;57.804;12.190;2024-03-23T05:04:11;25.95;;;3.85;;
24521;SDS011;12680;57.804;12.190;2024-03-23T05:06:37;21.38;;;3.42;;
24521;SDS011;12680;57.804;12.190;2024-03-23T05:09:09;22.52;;;3.20;;
24521;SDS011;12680;57.804;12.190;2024-03-23T05:11:38;20.60;;;3.50;;
24521;SDS011;12680;57.804;12.190;2024-03-23T05:14:04;25.75;;;3.65;;
24521;SDS011;12680;57.804;12.190;2024-03-23T05:16:36;30.05;;;3.60;;
24521;SDS011;12680;57.804;12.190;2024-03-23T05:19:02;25.60;;;4.03;;
24521;SDS011;12680;57.804;12.190;2024-03-23T05:21:28;30.15;;;4.03;;
24521;SDS011;12680;57.804;12.190;2024-03-23T05:24:00;19.67;;;3.15;;
24521;SDS011;12680;57.804;12.190;2024-03-23T05:26:32;22.20;;;3.75;;
24521;SDS011;12680;57.804;12.190;2024-03-23T05:28:59;45.40;;;4.43;;
24521;SDS011;12680;57.804;12.190;2024-03-23T05:31:31;16.90;;;3.75;;
24521;SDS011;12680;57.804;12.190;2024-03-23T05:33:57;19.00;;;3.38;;
24521;SDS011;12680;57.804;12.190;2024-03-23T05:36:23;28.95;;;3.35;;
24521;SDS011;12680;57.804;12.190;2024-03-23T05:38:55;27.50;;;3.28;;
24521;SDS011;12680;57.804;12.190;2024-03-23T05:41:21;19.58;;;3.38;;
24521;SDS011;12680;57.804;12.190;2024-03-23T05:43:55;23.15;;;2.83;;
24521;SDS011;12680;57.804;12.190;2024-03-23T05:46:21;30.20;;;4.43;;
24521;SDS011;12680;57.804;12.190;2024-03-23T05:48:53;27.10;;;3.88;;
24521;SDS011;12680;57.804;12.190;2024-03-23T05:51:27;30.05;;;4.15;;
24521;SDS011;12680;57.804;12.190;2024-03-23T05:54:05;17.80;;;3.53;;
24521;SDS011;12680;57.804;12.190;2024-03-23T05:56:44;22.55;;;3.53;;
24521;SDS011;12680;57.804;12.190;2024-03-23T05:59:16;25.33;;;3.85;;
24521;SDS011;12680;57.804;12.190;2024-03-23T06:01:42;24.45;;;3.85;;
24521;SDS011;12680;57.804;12.190;2024-03-23T06:04:08;31.42;;;3.97;;
24521;SDS011;12680;57.804;12.190;2024-03-23T06:06:40;27.35;;;4.00;;
24521;SDS011;12680;57.804;12.190;2024-03-23T06:09:06;23.08;;;3.40;;
24521;SDS011;12680;57.804;12.190;2024-03-23T06:11:53;24.50;;;4.32;;
24521;SDS011;12680;57.804;12.190;2024-03-23T06:14:32;27.05;;;3.95;;
24521;SDS011;12680;57.804;12.190;2024-03-23T06:17:05;21.83;;;3.78;;
24521;SDS011;12680;57.804;12.190;2024-03-23T06:19:31;26.50;;;4.38;;
24521;SDS011;12680;57.804;12.190;2024-03-23T06:22:03;25.20;;;4.22;;
24521;SDS011;12680;57.804;12.190;2024-03-23T06:24:32;24.90;;;3.97;;
24521;SDS011;12680;57.804;12.190;2024-03-23T06:26:57;31.75;;;3.60;;
24521;SDS011;12680;57.804;12.190;2024-03-23T06:29:29;20.83;;;3.72;;
24521;SDS011;12680;57.804;12.190;2024-03-23T06:31:55;33.95;;;5.07;;
24521;SDS011;12680;57.804;12.190;2024-03-23T06:34:27;27.77;;;3.63;;
24521;SDS011;12680;57.804;12.190;2024-03-23T06:36:53;19.75;;;3.40;;
24521;SDS011;12680;57.804;12.190;2024-03-23T06:39:25;25.85;;;3.72;;
24521;SDS011;12680;57.804;12.190;2024-03-23T06:41:52;27.02;;;4.28;;
24521;SDS011;12680;57.804;12.190;2024-03-23T06:44:19;26.65;;;3.08;;
24521;SDS011;12680;57.804;12.190;2024-03-23T06:46:51;21.48;;;3.67;;
24521;SDS011;12680;57.804;12.190;2024-03-23T06:49:17;19.10;;;3.88;;
24521;SDS011;12680;57.804;12.190;2024-03-23T06:51:50;28.20;;;3.83;;
24521;SDS011;12680;57.804;12.190;2024-03-23T06:54:24;26.10;;;3.53;;
24521;SDS011;12680;57.804;12.190;2024-03-23T06:56:56;13.40;;;3.20;;
24521;SDS011;12680;57.804;12.190;2024-03-23T06:59:28;25.92;;;3.45;;
24521;SDS011;12680;57.804;12.190;2024-03-23T07:02:00;19.20;;;3.47;;
24521;SDS011;12680;57.804;12.190;2024-03-23T07:04:26;27.55;;;3.58;;
24521;SDS011;12680;57.804;12.190;2024-03-23T07:06:52;28.35;;;3.95;;
24521;SDS011;12680;57.804;12.190;2024-03-23T07:09:25;20.40;;;3.22;;
24521;SDS011;12680;57.804;12.190;2024-03-23T07:11:56;22.83;;;2.90;;
24521;SDS011;12680;57.804;12.190;2024-03-23T07:14:22;28.02;;;4.22;;
24521;SDS011;12680;57.804;12.190;2024-03-23T07:16:55;31.33;;;4.03;;
24521;SDS011;12680;57.804;12.190;2024-03-23T07:19:28;25.30;;;4.28;;
24521;SDS011;12680;57.804;12.190;2024-03-23T07:21:54;25.83;;;4.65;;
24521;SDS011;12680;57.804;12.190;2024-03-23T07:24:20;25.50;;;4.30;;
24521;SDS011;12680;57.804;12.190;2024-03-23T07:26:52;24.90;;;3.42;;
24521;SDS011;12680;57.804;12.190;2024-03-23T07:29:19;25.02;;;3.80;;
24521;SDS011;12680;57.804;12.190;2024-03-23T07:31:51;25.23;;;3.13;;
24521;SDS011;12680;57.804;12.190;2024-03-23T07:34:23;28.85;;;3.75;;
24521;SDS011;12680;57.804;12.190;2024-03-23T07:36:55;26.85;;;4.13;;
24521;SDS011;12680;57.804;12.190;2024-03-23T07:39:21;16.35;;;2.60;;
24521;SDS011;12680;57.804;12.190;2024-03-23T07:41:47;32.42;;;3.92;;
24521;SDS011;12680;57.804;12.190;2024-03-23T07:44:19;21.38;;;3.35;;
24521;SDS011;12680;57.804;12.190;2024-03-23T07:46:45;26.58;;;3.88;;
24521;SDS011;12680;57.804;12.190;2024-03-23T07:49:18;20.02;;;4.40;;
24521;SDS011;12680;57.804;12.190;2024-03-23T07:51:44;23.90;;;3.15;;
24521;SDS011;12680;57.804;12.190;2024-03-23T07:54:10;20.75;;;3.63;;
24521;SDS011;12680;57.804;12.190;2024-03-23T07:56:49;17.88;;;2.88;;
24521;SDS011;12680;57.804;12.190;2024-03-23T07:59:15;21.30;;;3.47;;
24521;SDS011;12680;57.804;12.190;2024-03-23T08:01:41;19.02;;;2.55;;
24521;SDS011;12680;57.804;12.190;2024-03-23T08:04:13;26.05;;;3.67;;
24521;SDS011;12680;57.804;12.190;2024-03-23T08:06:39;18.90;;;3.03;;
24521;SDS011;12680;57.804;12.190;2024-03-23T08:09:12;16.38;;;3.08;;
24521;SDS011;12680;57.804;12.190;2024-03-23T08:11:43;26.73;;;4.18;;
24521;SDS011;12680;57.804;12.190;2024-03-23T08:14:18;29.55;;;4.05;;
24521;SDS011;12680;57.804;12.190;2024-03-23T08:16:44;21.73;;;3.00;;
24521;SDS011;12680;57.804;12.190;2024-03-23T08:19:14;23.40;;;3.15;;
24521;SDS011;12680;57.804;12.190;2024-03-23T08:21:46;21.13;;;3.55;;
24521;SDS011;12680;57.804;12.190;2024-03-23T08:24:12;20.98;;;3.05;;
24521;SDS011;12680;57.804;12.190;2024-03-23T08:26:44;22.00;;;3.67;;
24521;SDS011;12680;57.804;12.190;2024-03-23T08:29:10;15.05;;;2.97;;
24521;SDS011;12680;57.804;12.190;2024-03-23T08:31:42;23.65;;;3.92;;
24521;SDS011;12680;57.804;12.190;2024-03-23T08:34:08;15.60;;;3.05;;
24521;SDS011;12680;57.804;12.190;2024-03-23T08:36:41;28.08;;;3.30;;
24521;SDS011;12680;57.804;12.190;2024-03-23T08:39:06;27.27;;;3.63;;
24521;SDS011;12680;57.804;12.190;2024-03-23T08:41:32;22.15;;;3.42;;
24521;SDS011;12680;57.804;12.190;2024-03-23T08:44:04;26.15;;;3.17;;
24521;SDS011;12680;57.804;12.190;2024-03-23T08:46:30;17.38;;;2.92;;
24521;SDS011;12680;57.804;12.190;2024-03-23T08:49:03;17.17;;;3.40;;
24521;SDS011;12680;57.804;12.190;2024-03-23T08:51:28;25.63;;;3.45;;
24521;SDS011;12680;57.804;12.190;2024-03-23T08:54:01;17.60;;;2.72;;
24521;SDS011;12680;57.804;12.190;2024-03-23T08:56:40;14.57;;;3.47;;
24521;SDS011;12680;57.804;12.190;2024-03-23T08:59:13;25.45;;;3.38;;
24521;SDS011;12680;57.804;12.190;2024-03-23T09:01:38;20.30;;;3.17;;
24521;SDS011;12680;57.804;12.190;2024-03-23T09:04:04;22.20;;;3.97;;
24521;SDS011;12680;57.804;12.190;2024-03-23T09:06:37;21.17;;;3.28;;
24521;SDS011;12680;57.804;12.190;2024-03-23T09:09:02;19.35;;;3.13;;
24521;SDS011;12680;57.804;12.190;2024-03-23T09:11:35;23.08;;;4.53;;
24521;SDS011;12680;57.804;12.190;2024-03-23T09:14:01;15.50;;;3.58;;
24521;SDS011;12680;57.804;12.190;2024-03-23T09:16:26;21.90;;;3.80;;
24521;SDS011;12680;57.804;12.190;2024-03-23T09:18:59;16.27;;;4.07;;
24521;SDS011;12680;57.804;12.190;2024-03-23T09:21:24;16.17;;;3.25;;
24521;SDS011;12680;57.804;12.190;2024-03-23T09:23:50;18.58;;;2.83;;
24521;SDS011;12680;57.804;12.190;2024-03-23T09:26:23;19.70;;;3.08;;
24521;SDS011;12680;57.804;12.190;2024-03-23T09:28:55;21.88;;;3.90;;
24521;SDS011;12680;57.804;12.190;2024-03-23T09:31:20;19.40;;;3.80;;
24521;SDS011;12680;57.804;12.190;2024-03-23T09:33:54;23.48;;;3.63;;
24521;SDS011;12680;57.804;12.190;2024-03-23T09:36:20;21.98;;;3.30;;
24521;SDS011;12680;57.804;12.190;2024-03-23T09:38:46;18.75;;;3.53;;
24521;SDS011;12680;57.804;12.190;2024-03-23T09:41:18;20.45;;;3.22;;
24521;SDS011;12680;57.804;12.190;2024-03-23T09:43:43;26.30;;;3.53;;
24521;SDS011;12680;57.804;12.190;2024-03-23T09:46:17;21.45;;;3.15;;
24521;SDS011;12680;57.804;12.190;2024-03-23T09:48:43;20.33;;;3.35;;
24521;SDS011;12680;57.804;12.190;2024-03-23T09:51:12;14.32;;;2.55;;
24521;SDS011;12680;57.804;12.190;2024-03-23T09:53:45;16.83;;;3.25;;
24521;SDS011;12680;57.804;12.190;2024-03-23T09:56:18;21.73;;;3.10;;
24521;SDS011;12680;57.804;12.190;2024-03-23T09:58:50;19.40;;;2.83;;
24521;SDS011;12680;57.804;12.190;2024-03-23T10:01:15;18.00;;;3.67;;
24521;SDS011;12680;57.804;12.190;2024-03-23T10:03:48;19.23;;;3.63;;
24521;SDS011;12680;57.804;12.190;2024-03-23T10:06:13;17.45;;;3.70;;
24521;SDS011;12680;57.804;12.190;2024-03-23T10:08:53;25.60;;;4.97;;
24521;SDS011;12680;57.804;12.190;2024-03-23T10:11:20;29.52;;;4.80;;
24521;SDS011;12680;57.804;12.190;2024-03-23T10:13:46;17.65;;;3.40;;
24521;SDS011;12680;57.804;12.190;2024-03-23T10:16:22;20.92;;;3.85;;
24521;SDS011;12680;57.804;12.190;2024-03-23T10:18:49;16.42;;;3.38;;
24521;SDS011;12680;57.804;12.190;2024-03-23T10:21:15;21.42;;;2.90;;
24521;SDS011;12680;57.804;12.190;2024-03-23T10:23:48;26.05;;;4.15;;
24521;SDS011;12680;57.804;12.190;2024-03-23T10:26:24;18.40;;;3.33;;
24521;SDS011;12680;57.804;12.190;2024-03-23T10:29:01;23.02;;;3.35;;
24521;SDS011;12680;57.804;12.190;2024-03-23T10:31:28;17.65;;;2.80;;
24521;SDS011;12680;57.804;12.190;2024-03-23T10:33:55;18.25;;;3.08;;
24521;SDS011;12680;57.804;12.190;2024-03-23T10:36:28;20.02;;;3.08;;
24521;SDS011;12680;57.804;12.190;2024-03-23T10:38:55;21.83;;;3.55;;
24521;SDS011;12680;57.804;12.190;2024-03-23T10:41:27;18.20;;;3.85;;
24521;SDS011;12680;57.804;12.190;2024-03-23T10:44:01;18.58;;;3.30;;
24521;SDS011;12680;57.804;12.190;2024-03-23T10:46:27;18.63;;;2.75;;
24521;SDS011;12680;57.804;12.190;2024-03-23T10:49:00;23.58;;;4.13;;
24521;SDS011;12680;57.804;12.190;2024-03-23T10:51:25;24.25;;;3.13;;
24521;SDS011;12680;57.804;12.190;2024-03-23T10:53:58;21.35;;;2.85;;
24521;SDS011;12680;57.804;12.190;2024-03-23T10:56:38;19.63;;;2.55;;
24521;SDS011;12680;57.804;12.190;2024-03-23T10:59:12;16.95;;;2.50;;
24521;SDS011;12680;57.804;12.190;2024-03-23T11:01:55;15.43;;;3.00;;
24521;SDS011;12680;57.804;12.190;2024-03-23T11:07:00;17.05;;;2.92;;
24521;SDS011;12680;57.804;12.190;2024-03-23T11:09:39;19.48;;;3.35;;
24521;SDS011;12680;57.804;12.190;2024-03-23T11:14:47;17.73;;;3.17;;
24521;SDS011;12680;57.804;12.190;2024-03-23T11:17:20;15.98;;;3.30;;
24521;SDS011;12680;57.804;12.190;2024-03-23T11:25:19;15.68;;;2.92;;
24521;SDS011;12680;57.804;12.190;2024-03-23T11:27:47;23.35;;;3.33;;
24521;SDS011;12680;57.804;12.190;2024-03-23T11:30:27;13.23;;;2.80;;
24521;SDS011;12680;57.804;12.190;2024-03-23T11:33:01;22.42;;;3.30;;
24521;SDS011;12680;57.804;12.190;2024-03-23T11:35:28;14.95;;;2.75;;
24521;SDS011;12680;57.804;12.190;2024-03-23T11:38:05;17.88;;;3.25;;
24521;SDS011;12680;57.804;12.190;2024-03-23T11:40:39;20.27;;;3.13;;
24521;SDS011;12680;57.804;12.190;2024-03-23T11:43:13;15.07;;;3.13;;
24521;SDS011;12680;57.804;12.190;2024-03-23T11:45:42;15.90;;;3.35;;
24521;SDS011;12680;57.804;12.190;2024-03-23T11:48:25;15.20;;;2.72;;
24521;SDS011;12680;57.804;12.190;2024-03-23T11:50:56;17.95;;;2.97;;
24521;SDS011;12680;57.804;12.190;2024-03-23T11:53:23;18.95;;;2.83;;
24521;SDS011;12680;57.804;12.190;2024-03-23T11:55:59;21.52;;;3.20;;
24521;SDS011;12680;57.804;12.190;2024-03-23T11:58:32;17.45;;;2.92;;
24521;SDS011;12680;57.804;12.190;2024-03-23T12:01:09;16.08;;;2.92;;
24521;SDS011;12680;57.804;12.190;2024-03-23T12:03:35;16.85;;;3.00;;
24521;SDS011;12680;57.804;12.190;2024-03-23T12:06:02;20.17;;;3.20;;
24521;SDS011;12680;57.804;12.190;2024-03-23T12:08:35;17.08;;;3.83;;
24521;SDS011;12680;57.804;12.190;2024-03-23T12:11:05;18.50;;;2.55;;
24521;SDS011;12680;57.804;12.190;2024-03-23T12:13:38;17.63;;;2.63;;
24521;SDS011;12680;57.804;12.190;2024-03-23T12:16:19;14.85;;;2.40;;
24521;SDS011;12680;57.804;12.190;2024-03-23T12:18:52;12.32;;;2.10;;
24521;SDS011;12680;57.804;12.190;2024-03-23T12:21:24;13.23;;;2.72;;
24521;SDS011;12680;57.804;12.190;2024-03-23T12:24:04;14.45;;;2.53;;
24521;SDS011;12680;57.804;12.190;2024-03-23T12:26:30;16.70;;;2.75;;
24521;SDS011;12680;57.804;12.190;2024-03-23T12:28:56;14.00;;;2.67;;
24521;SDS011;12680;57.804;12.190;2024-03-23T12:31:28;20.23;;;3.33;;
24521;SDS011;12680;57.804;12.190;2024-03-23T12:33:53;12.68;;;2.13;;
24521;SDS011;12680;57.804;12.190;2024-03-23T12:36:26;17.02;;;2.70;;
24521;SDS011;12680;57.804;12.190;2024-03-23T12:38:51;12.32;;;2.70;;
24521;SDS011;12680;57.804;12.190;2024-03-23T12:41:17;16.52;;;3.13;;
24521;SDS011;12680;57.804;12.190;2024-03-23T12:43:50;19.15;;;2.72;;
24521;SDS011;12680;57.804;12.190;2024-03-23T12:46:15;12.10;;;2.20;;
24521;SDS011;12680;57.804;12.190;2024-03-23T12:48:48;16.55;;;2.67;;
24521;SDS011;12680;57.804;12.190;2024-03-23T12:51:20;12.80;;;2.95;;
24521;SDS011;12680;57.804;12.190;2024-03-23T12:53:46;16.45;;;2.63;;
24521;SDS011;12680;57.804;12.190;2024-03-23T12:56:24;13.63;;;2.80;;
24521;SDS011;12680;57.804;12.190;2024-03-23T12:58:50;12.90;;;2.50;;
24521;SDS011;12680;57.804;12.190;2024-03-23T13:01:24;11.65;;;2.05;;
24521;SDS011;12680;57.804;12.190;2024-03-23T13:03:50;12.95;;;2.80;;
24521;SDS011;12680;57.804;12.190;2024-03-23T13:06:22;10.82;;;2.50;;
24521;SDS011;12680;57.804;12.190;2024-03-23T13:08:47;13.93;;;2.90;;
24521;SDS011;12680;57.804;12.190;2024-03-23T13:11:22;13.35;;;2.70;;
24521;SDS011;12680;57.804;12.190;2024-03-23T13:13:47;16.00;;;2.88;;
24521;SDS011;12680;57.804;12.190;2024-03-23T13:16:20;12.48;;;2.63;;
24521;SDS011;12680;57.804;12.190;2024-03-23T13:18:45;13.35;;;2.25;;
24521;SDS011;12680;57.804;12.190;2024-03-23T13:21:11;11.93;;;2.17;;
24521;SDS011;12680;57.804;12.190;2024-03-23T13:23:47;11.63;;;2.33;;
24521;SDS011;12680;57.804;12.190;2024-03-23T13:26:15;11.35;;;2.13;;
24521;SDS011;12680;57.804;12.190;2024-03-23T13:29:00;10.82;;;2.13;;
24521;SDS011;12680;57.804;12.190;2024-03-23T13:31:26;8.15;;;1.65;;
24521;SDS011;12680;57.804;12.190;2024-03-23T13:33:59;8.40;;;1.48;;
24521;SDS011;12680;57.804;12.190;2024-03-23T13:36:24;6.78;;;1.77;;
24521;SDS011;12680;57.804;12.190;2024-03-23T13:38:57;11.68;;;1.90;;
24521;SDS011;12680;57.804;12.190;2024-03-23T13:41:23;7.10;;;2.00;;
24521;SDS011;12680;57.804;12.190;2024-03-23T13:43:49;14.52;;;2.08;;
24521;SDS011;12680;57.804;12.190;2024-03-23T13:46:22;13.35;;;1.98;;
24521;SDS011;12680;57.804;12.190;2024-03-23T13:48:47;12.35;;;2.28;;
24521;SDS011;12680;57.804;12.190;2024-03-23T13:51:13;13.68;;;2.42;;
24521;SDS011;12680;57.804;12.190;2024-03-23T13:53:46;11.27;;;2.00;;
24521;SDS011;12680;57.804;12.190;2024-03-23T13:56:12;10.98;;;1.98;;
24521;SDS011;12680;57.804;12.190;2024-03-23T13:58:38;6.40;;;1.52;;
24521;SDS011;12680;57.804;12.190;2024-03-23T14:01:11;11.63;;;2.55;;
24521;SDS011;12680;57.804;12.190;2024-03-23T14:03:36;8.35;;;1.75;;
24521;SDS011;12680;57.804;12.190;2024-03-23T14:06:09;13.90;;;2.05;;
24521;SDS011;12680;57.804;12.190;2024-03-23T14:08:36;14.68;;;2.70;;
24521;SDS011;12680;57.804;12.190;2024-03-23T14:11:11;13.32;;;2.75;;
24521;SDS011;12680;57.804;12.190;2024-03-23T14:13:37;9.70;;;2.10;;
24521;SDS011;12680;57.804;12.190;2024-03-23T14:16:03;11.00;;;2.10;;
24521;SDS011;12680;57.804;12.190;2024-03-23T14:18:36;12.43;;;1.60;;
24521;SDS011;12680;57.804;12.190;2024-03-23T14:21:02;13.32;;;2.63;;
24521;SDS011;12680;57.804;12.190;2024-03-23T14:23:35;12.20;;;1.95;;
24521;SDS011;12680;57.804;12.190;2024-03-23T14:26:07;12.73;;;2.58;;
24521;SDS011;12680;57.804;12.190;2024-03-23T14:28:52;8.38;;;2.10;;
24521;SDS011;12680;57.804;12.190;2024-03-23T14:31:18;6.80;;;1.80;;
24521;SDS011;12680;57.804;12.190;2024-03-23T14:33:51;9.48;;;1.52;;
24521;SDS011;12680;57.804;12.190;2024-03-23T14:36:17;9.38;;;1.95;;
24521;SDS011;12680;57.804;12.190;2024-03-23T14:38:47;9.27;;;1.80;;
24521;SDS011;12680;57.804;12.190;2024-03-23T14:41:20;5.70;;;1.50;;
24521;SDS011;12680;57.804;12.190;2024-03-23T14:43:46;9.00;;;1.50;;
24521;SDS011;12680;57.804;12.190;2024-03-23T14:46:14;7.22;;;1.42;;
24521;SDS011;12680;57.804;12.190;2024-03-23T14:48:47;7.25;;;1.58;;
24521;SDS011;12680;57.804;12.190;2024-03-23T14:51:19;8.27;;;1.63;;
24521;SDS011;12680;57.804;12.190;2024-03-23T14:53:53;6.88;;;1.40;;
24521;SDS011;12680;57.804;12.190;2024-03-23T14:56:18;9.43;;;1.52;;
24521;SDS011;12680;57.804;12.190;2024-03-23T14:58:54;7.70;;;1.75;;
24521;SDS011;12680;57.804;12.190;2024-03-23T15:01:21;12.02;;;1.95;;
24521;SDS011;12680;57.804;12.190;2024-03-23T15:03:47;8.65;;;1.75;;
24521;SDS011;12680;57.804;12.190;2024-03-23T15:06:19;10.65;;;2.40;;
24521;SDS011;12680;57.804;12.190;2024-03-23T15:08:45;12.05;;;2.08;;
24521;SDS011;12680;57.804;12.190;2024-03-23T15:11:17;6.43;;;1.58;;
24521;SDS011;12680;57.804;12.190;2024-03-23T15:13:45;7.38;;;2.08;;
24521;SDS011;12680;57.804;12.190;2024-03-23T15:16:21;8.23;;;2.33;;
24521;SDS011;12680;57.804;12.190;2024-03-23T15:18:46;7.07;;;1.80;;
24521;SDS011;12680;57.804;12.190;2024-03-23T15:21:12;12.93;;;1.90;;
24521;SDS011;12680;57.804;12.190;2024-03-23T15:23:51;4.85;;;1.40;;
24521;SDS011;12680;57.804;12.190;2024-03-23T15:26:16;9.10;;;1.80;;
24521;SDS011;12680;57.804;12.190;2024-03-23T15:28:49;8.05;;;1.50;;
24521;SDS011;12680;57.804;12.190;2024-03-23T15:31:24;8.68;;;2.00;;
24521;SDS011;12680;57.804;12.190;2024-03-23T15:33:57;7.43;;;1.75;;
24521;SDS011;12680;57.804;12.190;2024-03-23T15:36:23;5.10;;;1.27;;
24521;SDS011;12680;57.804;12.190;2024-03-23T15:38:56;9.63;;;1.85;;
24521;SDS011;12680;57.804;12.190;2024-03-23T15:41:22;7.80;;;1.17;;